sensor_id;sensor_type;location;lat;lon;timestamp;temperature;humidity
6206;DHT22;3136;48.788;9.772;2024-02-21T00:00:43;3.40;99.90
6206;DHT22;3136;48.788;9.772;2024-02-21T00:03:09;3.50;99.90
6206;DHT22;3136;48.788;9.772;2024-02-21T00:05:35;3.50;99.90
6206;DHT22;3136;48.788;9.772;2024-02-21T00:08:00;3.50;99.90
6206;DHT22;3136;48.788;9.772;2024-02-21T00:10:26;3.50;99.90
6206;DHT22;3136;48.788;9.772;2024-02-21T00:12:52;3.50;99.90
6206;DHT22;3136;48.788;9.772;2024-02-21T00:15:17;3.50;99.90
6206;DHT22;3136;48.788;9.772;2024-02-21T00:17:46;3.50;99.90
6206;DHT22;3136;48.788;9.772;2024-02-21T00:20:11;3.60;99.90
6206;DHT22;3136;48.788;9.772;2024-02-21T00:22:37;3.60;99.90
6206;DHT22;3136;48.788;9.772;2024-02-21T00:25:03;3.50;99.90
6206;DHT22;3136;48.788;9.772;2024-02-21T00:27:29;3.60;99.90
6206;DHT22;3136;48.788;9.772;2024-02-21T00:29:54;3.60;99.90
6206;DHT22;3136;48.788;9.772;2024-02-21T00:32:20;3.60;99.90
6206;DHT22;3136;48.788;9.772;2024-02-21T00:34:46;3.60;99.90
6206;DHT22;3136;48.788;9.772;2024-02-21T00:37:11;3.70;99.90
6206;DHT22;3136;48.788;9.772;2024-02-21T00:39:37;3.70;99.90
6206;DHT22;3136;48.788;9.772;2024-02-21T00:42:03;3.70;99.90
6206;DHT22;3136;48.788;9.772;2024-02-21T00:44:28;3.80;99.90
6206;DHT22;3136;48.788;9.772;2024-02-21T00:46:54;3.80;99.90
6206;DHT22;3136;48.788;9.772;2024-02-21T00:49:19;3.80;99.90
6206;DHT22;3136;48.788;9.772;2024-02-21T00:51:45;3.80;99.90
6206;DHT22;3136;48.788;9.772;2024-02-21T00:54:10;3.80;99.90
6206;DHT22;3136;48.788;9.772;2024-02-21T00:56:36;3.80;99.90
6206;DHT22;3136;48.788;9.772;2024-02-21T00:59:02;3.80;99.90
6206;DHT22;3136;48.788;9.772;2024-02-21T01:01:27;3.80;99.90
6206;DHT22;3136;48.788;9.772;2024-02-21T01:03:53;3.80;99.90
6206;DHT22;3136;48.788;9.772;2024-02-21T01:06:19;3.80;99.90
6206;DHT22;3136;48.788;9.772;2024-02-21T01:08:49;3.80;99.90
6206;DHT22;3136;48.788;9.772;2024-02-21T01:11:15;3.80;99.90
6206;DHT22;3136;48.788;9.772;2024-02-21T01:13:41;3.90;99.90
6206;DHT22;3136;48.788;9.772;2024-02-21T01:16:06;3.90;99.90
6206;DHT22;3136;48.788;9.772;2024-02-21T01:18:37;3.90;99.90
6206;DHT22;3136;48.788;9.772;2024-02-21T01:21:03;4.00;99.90
6206;DHT22;3136;48.788;9.772;2024-02-21T01:23:35;4.00;99.90
6206;DHT22;3136;48.788;9.772;2024-02-21T01:26:01;4.00;99.90
6206;DHT22;3136;48.788;9.772;2024-02-21T01:28:27;4.00;99.90
6206;DHT22;3136;48.788;9.772;2024-02-21T01:30:52;4.00;99.90
6206;DHT22;3136;48.788;9.772;2024-02-21T01:33:18;4.00;99.90
6206;DHT22;3136;48.788;9.772;2024-02-21T01:35:44;4.00;99.90
6206;DHT22;3136;48.788;9.772;2024-02-21T01:38:10;4.10;99.90
6206;DHT22;3136;48.788;9.772;2024-02-21T01:40:36;4.10;99.90
6206;DHT22;3136;48.788;9.772;2024-02-21T01:43:02;4.10;99.90
6206;DHT22;3136;48.788;9.772;2024-02-21T01:45:28;4.20;99.90
6206;DHT22;3136;48.788;9.772;2024-02-21T01:47:53;4.20;99.90
6206;DHT22;3136;48.788;9.772;2024-02-21T01:50:20;4.20;99.90
6206;DHT22;3136;48.788;9.772;2024-02-21T01:52:49;4.20;99.90
6206;DHT22;3136;48.788;9.772;2024-02-21T01:55:16;4.30;99.90
6206;DHT22;3136;48.788;9.772;2024-02-21T01:57:43;4.20;99.90
6206;DHT22;3136;48.788;9.772;2024-02-21T02:00:11;4.30;99.90
6206;DHT22;3136;48.788;9.772;2024-02-21T02:02:38;4.30;99.90
6206;DHT22;3136;48.788;9.772;2024-02-21T02:05:05;4.30;99.90
6206;DHT22;3136;48.788;9.772;2024-02-21T02:07:31;4.30;99.90
6206;DHT22;3136;48.788;9.772;2024-02-21T02:09:57;4.40;99.90
6206;DHT22;3136;48.788;9.772;2024-02-21T02:12:23;4.40;99.90
6206;DHT22;3136;48.788;9.772;2024-02-21T02:15:01;4.40;99.90
6206;DHT22;3136;48.788;9.772;2024-02-21T02:17:30;4.40;99.90
6206;DHT22;3136;48.788;9.772;2024-02-21T02:19:55;4.50;99.90
6206;DHT22;3136;48.788;9.772;2024-02-21T02:22:22;4.50;99.90
6206;DHT22;3136;48.788;9.772;2024-02-21T02:24:50;4.50;99.90
6206;DHT22;3136;48.788;9.772;2024-02-21T02:27:16;4.50;99.90
6206;DHT22;3136;48.788;9.772;2024-02-21T02:29:42;3.90;99.90
6206;DHT22;3136;48.788;9.772;2024-02-21T02:32:07;4.50;99.90
6206;DHT22;3136;48.788;9.772;2024-02-21T02:34:33;4.50;99.90
6206;DHT22;3136;48.788;9.772;2024-02-21T02:36:58;4.50;99.90
6206;DHT22;3136;48.788;9.772;2024-02-21T02:39:24;4.60;99.90
6206;DHT22;3136;48.788;9.772;2024-02-21T02:41:49;4.60;99.90
6206;DHT22;3136;48.788;9.772;2024-02-21T02:44:15;4.50;99.90
6206;DHT22;3136;48.788;9.772;2024-02-21T02:46:41;4.60;99.90
6206;DHT22;3136;48.788;9.772;2024-02-21T02:49:07;4.60;99.90
6206;DHT22;3136;48.788;9.772;2024-02-21T02:51:32;4.60;99.90
6206;DHT22;3136;48.788;9.772;2024-02-21T02:53:58;4.60;99.90
6206;DHT22;3136;48.788;9.772;2024-02-21T02:56:23;4.60;99.90
6206;DHT22;3136;48.788;9.772;2024-02-21T02:58:49;4.60;99.90
6206;DHT22;3136;48.788;9.772;2024-02-21T03:01:14;4.60;99.90
6206;DHT22;3136;48.788;9.772;2024-02-21T03:03:40;4.60;99.90
6206;DHT22;3136;48.788;9.772;2024-02-21T03:06:06;4.70;99.90
6206;DHT22;3136;48.788;9.772;2024-02-21T03:08:31;4.60;99.90
6206;DHT22;3136;48.788;9.772;2024-02-21T03:10:58;4.60;99.90
6206;DHT22;3136;48.788;9.772;2024-02-21T03:13:25;4.70;99.90
6206;DHT22;3136;48.788;9.772;2024-02-21T03:15:50;4.70;99.90
6206;DHT22;3136;48.788;9.772;2024-02-21T03:18:16;4.70;99.90
6206;DHT22;3136;48.788;9.772;2024-02-21T03:20:42;4.60;99.90
6206;DHT22;3136;48.788;9.772;2024-02-21T03:23:07;4.70;99.90
6206;DHT22;3136;48.788;9.772;2024-02-21T03:25:33;4.70;99.90
6206;DHT22;3136;48.788;9.772;2024-02-21T03:27:58;4.70;99.90
6206;DHT22;3136;48.788;9.772;2024-02-21T03:30:24;4.70;99.90
6206;DHT22;3136;48.788;9.772;2024-02-21T03:32:49;4.70;99.90
6206;DHT22;3136;48.788;9.772;2024-02-21T03:35:15;4.70;99.90
6206;DHT22;3136;48.788;9.772;2024-02-21T03:37:40;4.70;99.90
6206;DHT22;3136;48.788;9.772;2024-02-21T03:40:08;4.80;99.90
6206;DHT22;3136;48.788;9.772;2024-02-21T03:42:34;4.80;99.90
6206;DHT22;3136;48.788;9.772;2024-02-21T03:45:00;4.80;90.00
6206;DHT22;3136;48.788;9.772;2024-02-21T03:47:25;4.80;76.30
6206;DHT22;3136;48.788;9.772;2024-02-21T03:49:51;4.80;71.30
6206;DHT22;3136;48.788;9.772;2024-02-21T03:52:16;4.80;40.90
6206;DHT22;3136;48.788;9.772;2024-02-21T03:54:42;4.90;14.10
6206;DHT22;3136;48.788;9.772;2024-02-21T03:57:08;4.90;1.00
6206;DHT22;3136;48.788;9.772;2024-02-21T03:59:33;4.80;1.00
6206;DHT22;3136;48.788;9.772;2024-02-21T04:01:59;4.80;1.00
6206;DHT22;3136;48.788;9.772;2024-02-21T04:04:25;4.80;1.00
6206;DHT22;3136;48.788;9.772;2024-02-21T04:06:51;4.80;1.00
6206;DHT22;3136;48.788;9.772;2024-02-21T04:09:17;4.80;1.00
6206;DHT22;3136;48.788;9.772;2024-02-21T04:11:43;4.80;1.00
6206;DHT22;3136;48.788;9.772;2024-02-21T04:14:09;4.70;1.00
6206;DHT22;3136;48.788;9.772;2024-02-21T04:16:35;4.70;1.00
6206;DHT22;3136;48.788;9.772;2024-02-21T04:19:00;4.70;1.00
6206;DHT22;3136;48.788;9.772;2024-02-21T04:21:27;4.70;1.00
6206;DHT22;3136;48.788;9.772;2024-02-21T04:23:53;4.80;1.00
6206;DHT22;3136;48.788;9.772;2024-02-21T04:26:18;5.80;1.00
6206;DHT22;3136;48.788;9.772;2024-02-21T04:28:45;4.70;1.00
6206;DHT22;3136;48.788;9.772;2024-02-21T04:31:10;4.70;1.00
6206;DHT22;3136;48.788;9.772;2024-02-21T04:33:36;4.60;1.00
6206;DHT22;3136;48.788;9.772;2024-02-21T04:36:02;4.50;1.00
6206;DHT22;3136;48.788;9.772;2024-02-21T04:38:27;4.50;1.00
6206;DHT22;3136;48.788;9.772;2024-02-21T04:40:54;4.40;1.00
6206;DHT22;3136;48.788;9.772;2024-02-21T04:43:20;4.40;1.00
6206;DHT22;3136;48.788;9.772;2024-02-21T04:45:45;4.40;1.00
6206;DHT22;3136;48.788;9.772;2024-02-21T04:48:11;4.30;55.60
6206;DHT22;3136;48.788;9.772;2024-02-21T04:50:37;4.30;97.10
6206;DHT22;3136;48.788;9.772;2024-02-21T04:53:05;4.30;99.90
6206;DHT22;3136;48.788;9.772;2024-02-21T04:55:31;4.20;99.90
6206;DHT22;3136;48.788;9.772;2024-02-21T04:57:56;4.20;99.90
6206;DHT22;3136;48.788;9.772;2024-02-21T05:00:22;4.20;99.90
6206;DHT22;3136;48.788;9.772;2024-02-21T05:02:48;4.20;99.90
6206;DHT22;3136;48.788;9.772;2024-02-21T05:05:13;4.20;99.90
6206;DHT22;3136;48.788;9.772;2024-02-21T05:07:40;4.20;99.90
6206;DHT22;3136;48.788;9.772;2024-02-21T05:10:07;4.10;99.90
6206;DHT22;3136;48.788;9.772;2024-02-21T05:12:33;4.10;99.90
6206;DHT22;3136;48.788;9.772;2024-02-21T05:14:58;4.10;99.90
6206;DHT22;3136;48.788;9.772;2024-02-21T05:17:24;4.00;99.90
6206;DHT22;3136;48.788;9.772;2024-02-21T05:19:49;4.00;99.90
6206;DHT22;3136;48.788;9.772;2024-02-21T05:22:15;3.90;99.90
6206;DHT22;3136;48.788;9.772;2024-02-21T05:24:40;3.80;99.90
6206;DHT22;3136;48.788;9.772;2024-02-21T05:27:06;3.70;99.90
6206;DHT22;3136;48.788;9.772;2024-02-21T05:29:33;3.70;99.90
6206;DHT22;3136;48.788;9.772;2024-02-21T05:31:58;3.60;99.90
6206;DHT22;3136;48.788;9.772;2024-02-21T05:34:24;3.60;99.90
6206;DHT22;3136;48.788;9.772;2024-02-21T05:36:51;3.50;99.90
6206;DHT22;3136;48.788;9.772;2024-02-21T05:39:17;3.40;99.90
6206;DHT22;3136;48.788;9.772;2024-02-21T05:41:43;3.40;99.90
6206;DHT22;3136;48.788;9.772;2024-02-21T05:44:09;3.30;99.90
6206;DHT22;3136;48.788;9.772;2024-02-21T05:46:34;3.30;99.90
6206;DHT22;3136;48.788;9.772;2024-02-21T05:49:00;3.20;99.90
6206;DHT22;3136;48.788;9.772;2024-02-21T05:51:26;3.20;99.90
6206;DHT22;3136;48.788;9.772;2024-02-21T05:53:51;3.10;99.90
6206;DHT22;3136;48.788;9.772;2024-02-21T05:56:17;3.00;1.00
6206;DHT22;3136;48.788;9.772;2024-02-21T05:58:43;3.00;1.00
6206;DHT22;3136;48.788;9.772;2024-02-21T06:01:09;2.90;1.00
6206;DHT22;3136;48.788;9.772;2024-02-21T06:03:35;2.90;1.00
6206;DHT22;3136;48.788;9.772;2024-02-21T06:06:01;2.80;1.00
6206;DHT22;3136;48.788;9.772;2024-02-21T06:08:27;2.80;1.00
6206;DHT22;3136;48.788;9.772;2024-02-21T06:10:53;2.70;1.00
6206;DHT22;3136;48.788;9.772;2024-02-21T06:13:26;2.70;1.00
6206;DHT22;3136;48.788;9.772;2024-02-21T06:15:52;2.60;1.00
6206;DHT22;3136;48.788;9.772;2024-02-21T06:18:18;2.60;1.00
6206;DHT22;3136;48.788;9.772;2024-02-21T06:20:44;2.60;1.00
6206;DHT22;3136;48.788;9.772;2024-02-21T06:23:09;2.50;1.00
6206;DHT22;3136;48.788;9.772;2024-02-21T06:25:35;2.50;1.00
6206;DHT22;3136;48.788;9.772;2024-02-21T06:28:01;2.50;1.00
6206;DHT22;3136;48.788;9.772;2024-02-21T06:30:27;2.50;1.00
6206;DHT22;3136;48.788;9.772;2024-02-21T06:32:52;2.50;1.00
6206;DHT22;3136;48.788;9.772;2024-02-21T06:35:21;2.50;1.00
6206;DHT22;3136;48.788;9.772;2024-02-21T06:37:46;2.50;1.00
6206;DHT22;3136;48.788;9.772;2024-02-21T06:40:16;2.50;1.00
6206;DHT22;3136;48.788;9.772;2024-02-21T06:42:42;2.50;1.00
6206;DHT22;3136;48.788;9.772;2024-02-21T06:45:08;2.50;1.00
6206;DHT22;3136;48.788;9.772;2024-02-21T06:47:33;2.50;1.00
6206;DHT22;3136;48.788;9.772;2024-02-21T06:49:59;2.50;1.00
6206;DHT22;3136;48.788;9.772;2024-02-21T06:52:50;2.50;1.00
6206;DHT22;3136;48.788;9.772;2024-02-21T06:55:15;2.50;1.00
6206;DHT22;3136;48.788;9.772;2024-02-21T06:57:41;2.50;1.00
6206;DHT22;3136;48.788;9.772;2024-02-21T07:00:07;2.50;1.00
6206;DHT22;3136;48.788;9.772;2024-02-21T07:02:34;2.50;1.00
6206;DHT22;3136;48.788;9.772;2024-02-21T07:04:59;2.60;1.00
6206;DHT22;3136;48.788;9.772;2024-02-21T07:07:25;2.60;1.00
6206;DHT22;3136;48.788;9.772;2024-02-21T07:09:50;2.60;1.00
6206;DHT22;3136;48.788;9.772;2024-02-21T07:12:17;2.70;1.00
6206;DHT22;3136;48.788;9.772;2024-02-21T07:14:44;2.70;1.00
6206;DHT22;3136;48.788;9.772;2024-02-21T07:17:10;2.80;1.00
6206;DHT22;3136;48.788;9.772;2024-02-21T07:19:35;2.90;1.00
6206;DHT22;3136;48.788;9.772;2024-02-21T07:22:01;3.00;1.00
6206;DHT22;3136;48.788;9.772;2024-02-21T07:24:26;3.10;1.00
6206;DHT22;3136;48.788;9.772;2024-02-21T07:26:52;3.10;1.00
6206;DHT22;3136;48.788;9.772;2024-02-21T07:29:18;3.20;1.00
6206;DHT22;3136;48.788;9.772;2024-02-21T07:31:44;3.20;1.00
6206;DHT22;3136;48.788;9.772;2024-02-21T07:34:10;3.30;1.00
6206;DHT22;3136;48.788;9.772;2024-02-21T07:36:36;3.30;1.00
6206;DHT22;3136;48.788;9.772;2024-02-21T07:39:05;3.40;1.00
6206;DHT22;3136;48.788;9.772;2024-02-21T07:41:31;3.50;1.00
6206;DHT22;3136;48.788;9.772;2024-02-21T07:43:57;3.50;1.00
6206;DHT22;3136;48.788;9.772;2024-02-21T07:46:22;3.60;1.00
6206;DHT22;3136;48.788;9.772;2024-02-21T07:48:48;3.60;1.00
6206;DHT22;3136;48.788;9.772;2024-02-21T07:51:14;3.70;1.00
6206;DHT22;3136;48.788;9.772;2024-02-21T07:53:42;3.90;1.00
6206;DHT22;3136;48.788;9.772;2024-02-21T07:56:13;3.90;1.00
6206;DHT22;3136;48.788;9.772;2024-02-21T07:58:39;4.10;1.00
6206;DHT22;3136;48.788;9.772;2024-02-21T08:01:05;4.10;1.00
6206;DHT22;3136;48.788;9.772;2024-02-21T08:03:31;4.20;1.00
6206;DHT22;3136;48.788;9.772;2024-02-21T08:05:56;4.50;1.00
6206;DHT22;3136;48.788;9.772;2024-02-21T08:08:22;4.50;1.00
6206;DHT22;3136;48.788;9.772;2024-02-21T08:10:50;4.70;1.00
6206;DHT22;3136;48.788;9.772;2024-02-21T08:13:16;4.80;1.00
6206;DHT22;3136;48.788;9.772;2024-02-21T08:15:41;4.90;1.00
6206;DHT22;3136;48.788;9.772;2024-02-21T08:18:08;5.00;1.00
6206;DHT22;3136;48.788;9.772;2024-02-21T08:20:33;5.10;99.90
6206;DHT22;3136;48.788;9.772;2024-02-21T08:22:59;5.10;99.90
6206;DHT22;3136;48.788;9.772;2024-02-21T08:25:25;5.20;18.50
6206;DHT22;3136;48.788;9.772;2024-02-21T08:27:50;5.30;1.00
6206;DHT22;3136;48.788;9.772;2024-02-21T08:30:17;5.40;1.00
6206;DHT22;3136;48.788;9.772;2024-02-21T08:32:42;5.60;1.00
6206;DHT22;3136;48.788;9.772;2024-02-21T08:35:08;5.70;1.00
6206;DHT22;3136;48.788;9.772;2024-02-21T08:37:34;5.80;1.00
6206;DHT22;3136;48.788;9.772;2024-02-21T08:39:59;5.90;1.00
6206;DHT22;3136;48.788;9.772;2024-02-21T08:42:30;6.00;1.00
6206;DHT22;3136;48.788;9.772;2024-02-21T08:44:55;6.20;1.00
6206;DHT22;3136;48.788;9.772;2024-02-21T08:47:21;6.50;99.90
6206;DHT22;3136;48.788;9.772;2024-02-21T08:49:47;6.70;99.90
6206;DHT22;3136;48.788;9.772;2024-02-21T08:52:13;7.00;1.00
6206;DHT22;3136;48.788;9.772;2024-02-21T08:54:39;7.20;99.90
6206;DHT22;3136;48.788;9.772;2024-02-21T08:57:04;7.50;99.90
6206;DHT22;3136;48.788;9.772;2024-02-21T08:59:30;7.80;99.90
6206;DHT22;3136;48.788;9.772;2024-02-21T09:01:55;8.00;99.90
6206;DHT22;3136;48.788;9.772;2024-02-21T09:04:21;8.20;99.90
6206;DHT22;3136;48.788;9.772;2024-02-21T09:06:46;8.40;1.00
6206;DHT22;3136;48.788;9.772;2024-02-21T09:09:12;8.60;99.90
6206;DHT22;3136;48.788;9.772;2024-02-21T09:11:38;8.70;99.90
6206;DHT22;3136;48.788;9.772;2024-02-21T09:14:04;8.90;1.00
6206;DHT22;3136;48.788;9.772;2024-02-21T09:16:33;9.00;1.00
6206;DHT22;3136;48.788;9.772;2024-02-21T09:18:58;9.00;1.00
6206;DHT22;3136;48.788;9.772;2024-02-21T09:21:24;9.10;1.00
6206;DHT22;3136;48.788;9.772;2024-02-21T09:23:50;9.30;1.00
6206;DHT22;3136;48.788;9.772;2024-02-21T09:26:15;9.40;1.00
6206;DHT22;3136;48.788;9.772;2024-02-21T09:28:42;9.50;99.90
6206;DHT22;3136;48.788;9.772;2024-02-21T09:31:08;9.60;99.90
6206;DHT22;3136;48.788;9.772;2024-02-21T09:33:34;9.60;99.90
6206;DHT22;3136;48.788;9.772;2024-02-21T09:35:59;9.70;99.90
6206;DHT22;3136;48.788;9.772;2024-02-21T09:38:25;9.70;99.90
6206;DHT22;3136;48.788;9.772;2024-02-21T09:41:08;9.70;99.90
6206;DHT22;3136;48.788;9.772;2024-02-21T09:43:37;9.80;99.90
6206;DHT22;3136;48.788;9.772;2024-02-21T09:46:05;9.80;99.90
6206;DHT22;3136;48.788;9.772;2024-02-21T09:49:04;9.90;99.90
6206;DHT22;3136;48.788;9.772;2024-02-21T09:51:34;9.80;99.90
6206;DHT22;3136;48.788;9.772;2024-02-21T09:54:00;9.80;99.90
6206;DHT22;3136;48.788;9.772;2024-02-21T09:56:26;9.90;99.90
6206;DHT22;3136;48.788;9.772;2024-02-21T09:58:51;10.00;99.90
6206;DHT22;3136;48.788;9.772;2024-02-21T10:01:17;10.20;99.90
6206;DHT22;3136;48.788;9.772;2024-02-21T10:03:42;10.20;99.90
6206;DHT22;3136;48.788;9.772;2024-02-21T10:06:09;10.30;99.90
6206;DHT22;3136;48.788;9.772;2024-02-21T10:08:34;10.60;99.90
6206;DHT22;3136;48.788;9.772;2024-02-21T10:11:00;11.50;99.90
6206;DHT22;3136;48.788;9.772;2024-02-21T10:13:29;10.90;99.90
6206;DHT22;3136;48.788;9.772;2024-02-21T10:18:28;11.60;99.90
6206;DHT22;3136;48.788;9.772;2024-02-21T10:21:07;11.90;99.90
6206;DHT22;3136;48.788;9.772;2024-02-21T10:26:09;12.30;99.90
6206;DHT22;3136;48.788;9.772;2024-02-21T10:28:34;12.40;99.90
6206;DHT22;3136;48.788;9.772;2024-02-21T10:31:00;12.60;99.90
6206;DHT22;3136;48.788;9.772;2024-02-21T10:33:26;12.80;99.90
6206;DHT22;3136;48.788;9.772;2024-02-21T10:35:53;12.80;99.90
6206;DHT22;3136;48.788;9.772;2024-02-21T10:38:19;12.70;99.90
6206;DHT22;3136;48.788;9.772;2024-02-21T10:40:46;12.60;99.90
6206;DHT22;3136;48.788;9.772;2024-02-21T10:43:14;12.70;99.90
6206;DHT22;3136;48.788;9.772;2024-02-21T10:45:41;12.80;99.90
6206;DHT22;3136;48.788;9.772;2024-02-21T10:48:14;12.80;99.90
6206;DHT22;3136;48.788;9.772;2024-02-21T10:56:26;13.40;99.90
6206;DHT22;3136;48.788;9.772;2024-02-21T10:58:50;13.50;99.90
6206;DHT22;3136;48.788;9.772;2024-02-21T11:01:26;13.60;99.90
6206;DHT22;3136;48.788;9.772;2024-02-21T11:03:55;13.60;99.90
6206;DHT22;3136;48.788;9.772;2024-02-21T11:06:22;13.60;99.90
6206;DHT22;3136;48.788;9.772;2024-02-21T11:09:05;13.70;99.90
6206;DHT22;3136;48.788;9.772;2024-02-21T11:11:38;13.90;99.90
6206;DHT22;3136;48.788;9.772;2024-02-21T11:14:11;14.00;99.90
6206;DHT22;3136;48.788;9.772;2024-02-21T11:16:40;14.00;99.90
6206;DHT22;3136;48.788;9.772;2024-02-21T11:19:24;14.00;99.90
6206;DHT22;3136;48.788;9.772;2024-02-21T11:21:51;14.00;99.90
6206;DHT22;3136;48.788;9.772;2024-02-21T11:24:46;14.20;99.90
6206;DHT22;3136;48.788;9.772;2024-02-21T11:27:12;14.20;99.90
6206;DHT22;3136;48.788;9.772;2024-02-21T11:29:45;14.30;99.90
6206;DHT22;3136;48.788;9.772;2024-02-21T11:32:14;14.30;99.90
6206;DHT22;3136;48.788;9.772;2024-02-21T11:34:41;14.00;99.90
6206;DHT22;3136;48.788;9.772;2024-02-21T11:37:13;13.80;99.90
6206;DHT22;3136;48.788;9.772;2024-02-21T11:39:42;13.70;99.90
6206;DHT22;3136;48.788;9.772;2024-02-21T11:42:09;13.70;99.90
6206;DHT22;3136;48.788;9.772;2024-02-21T11:44:38;13.80;99.90
6206;DHT22;3136;48.788;9.772;2024-02-21T11:47:05;13.80;99.90
6206;DHT22;3136;48.788;9.772;2024-02-21T11:49:35;13.80;99.90
6206;DHT22;3136;48.788;9.772;2024-02-21T11:52:02;13.90;99.90
6206;DHT22;3136;48.788;9.772;2024-02-21T11:54:30;14.20;99.90
6206;DHT22;3136;48.788;9.772;2024-02-21T11:56:55;14.30;99.90
6206;DHT22;3136;48.788;9.772;2024-02-21T11:59:21;14.50;99.90
6206;DHT22;3136;48.788;9.772;2024-02-21T12:01:47;14.50;99.90
6206;DHT22;3136;48.788;9.772;2024-02-21T12:04:13;14.50;99.90
6206;DHT22;3136;48.788;9.772;2024-02-21T12:06:39;14.30;99.90
6206;DHT22;3136;48.788;9.772;2024-02-21T12:09:08;14.10;99.90
6206;DHT22;3136;48.788;9.772;2024-02-21T12:11:36;14.00;99.40
6206;DHT22;3136;48.788;9.772;2024-02-21T12:14:02;13.90;99.90
6206;DHT22;3136;48.788;9.772;2024-02-21T12:16:30;13.90;99.90
6206;DHT22;3136;48.788;9.772;2024-02-21T12:18:57;13.90;99.60
6206;DHT22;3136;48.788;9.772;2024-02-21T12:21:30;13.90;99.90
6206;DHT22;3136;48.788;9.772;2024-02-21T12:23:58;13.90;99.40
6206;DHT22;3136;48.788;9.772;2024-02-21T12:26:24;14.20;99.90
6206;DHT22;3136;48.788;9.772;2024-02-21T12:28:49;14.50;98.70
6206;DHT22;3136;48.788;9.772;2024-02-21T12:31:15;15.00;98.10
6206;DHT22;3136;48.788;9.772;2024-02-21T12:33:42;15.40;97.50
6206;DHT22;3136;48.788;9.772;2024-02-21T12:36:08;15.80;96.80
6206;DHT22;3136;48.788;9.772;2024-02-21T12:38:34;16.10;96.40
6206;DHT22;3136;48.788;9.772;2024-02-21T12:41:00;16.40;97.00
6206;DHT22;3136;48.788;9.772;2024-02-21T12:43:26;16.80;96.40
6206;DHT22;3136;48.788;9.772;2024-02-21T12:45:51;17.20;95.70
6206;DHT22;3136;48.788;9.772;2024-02-21T12:48:18;17.10;95.50
6206;DHT22;3136;48.788;9.772;2024-02-21T12:50:49;17.10;95.10
6206;DHT22;3136;48.788;9.772;2024-02-21T12:53:21;17.20;94.30
6206;DHT22;3136;48.788;9.772;2024-02-21T12:55:48;17.00;94.40
6206;DHT22;3136;48.788;9.772;2024-02-21T12:58:17;16.90;93.90
6206;DHT22;3136;48.788;9.772;2024-02-21T13:00:43;17.90;94.60
6206;DHT22;3136;48.788;9.772;2024-02-21T13:03:08;17.10;94.90
6206;DHT22;3136;48.788;9.772;2024-02-21T13:05:37;17.00;95.00
6206;DHT22;3136;48.788;9.772;2024-02-21T13:08:05;16.70;95.00
6206;DHT22;3136;48.788;9.772;2024-02-21T13:10:31;16.30;93.60
6206;DHT22;3136;48.788;9.772;2024-02-21T13:12:56;15.90;93.40
6206;DHT22;3136;48.788;9.772;2024-02-21T13:15:22;15.80;93.90
6206;DHT22;3136;48.788;9.772;2024-02-21T13:17:47;15.60;93.30
6206;DHT22;3136;48.788;9.772;2024-02-21T13:20:13;15.50;93.40
6206;DHT22;3136;48.788;9.772;2024-02-21T13:22:39;15.30;93.50
6206;DHT22;3136;48.788;9.772;2024-02-21T13:25:05;15.10;93.80
6206;DHT22;3136;48.788;9.772;2024-02-21T13:27:33;14.90;93.50
6206;DHT22;3136;48.788;9.772;2024-02-21T13:29:59;14.90;93.50
6206;DHT22;3136;48.788;9.772;2024-02-21T13:32:25;14.80;94.00
6206;DHT22;3136;48.788;9.772;2024-02-21T13:34:51;14.60;93.60
6206;DHT22;3136;48.788;9.772;2024-02-21T13:37:17;14.50;93.50
6206;DHT22;3136;48.788;9.772;2024-02-21T13:39:43;14.30;93.20
6206;DHT22;3136;48.788;9.772;2024-02-21T13:42:09;14.00;94.40
6206;DHT22;3136;48.788;9.772;2024-02-21T13:44:35;13.90;95.10
6206;DHT22;3136;48.788;9.772;2024-02-21T13:47:02;13.90;94.10
6206;DHT22;3136;48.788;9.772;2024-02-21T13:49:27;13.80;94.70
6206;DHT22;3136;48.788;9.772;2024-02-21T13:51:54;13.90;95.70
6206;DHT22;3136;48.788;9.772;2024-02-21T13:54:19;13.80;95.70
6206;DHT22;3136;48.788;9.772;2024-02-21T13:56:46;13.90;96.00
6206;DHT22;3136;48.788;9.772;2024-02-21T13:59:12;13.90;97.00
6206;DHT22;3136;48.788;9.772;2024-02-21T14:01:40;14.50;96.60
6206;DHT22;3136;48.788;9.772;2024-02-21T14:04:06;13.70;99.90
6206;DHT22;3136;48.788;9.772;2024-02-21T14:06:32;13.70;97.30
6206;DHT22;3136;48.788;9.772;2024-02-21T14:08:58;13.60;97.40
6206;DHT22;3136;48.788;9.772;2024-02-21T14:11:23;13.50;98.10
6206;DHT22;3136;48.788;9.772;2024-02-21T14:13:49;13.50;97.70
6206;DHT22;3136;48.788;9.772;2024-02-21T14:16:14;13.60;98.60
6206;DHT22;3136;48.788;9.772;2024-02-21T14:18:43;13.50;99.40
6206;DHT22;3136;48.788;9.772;2024-02-21T14:21:09;13.40;98.30
6206;DHT22;3136;48.788;9.772;2024-02-21T14:23:39;13.40;98.60
6206;DHT22;3136;48.788;9.772;2024-02-21T14:26:05;13.40;99.00
6206;DHT22;3136;48.788;9.772;2024-02-21T14:28:31;13.30;99.10
6206;DHT22;3136;48.788;9.772;2024-02-21T14:30:59;13.10;98.70
6206;DHT22;3136;48.788;9.772;2024-02-21T14:33:28;13.00;98.70
6206;DHT22;3136;48.788;9.772;2024-02-21T14:35:54;13.00;99.90
6206;DHT22;3136;48.788;9.772;2024-02-21T14:38:20;12.90;99.80
6206;DHT22;3136;48.788;9.772;2024-02-21T14:40:45;12.80;99.90
6206;DHT22;3136;48.788;9.772;2024-02-21T14:43:11;12.70;99.90
6206;DHT22;3136;48.788;9.772;2024-02-21T14:45:37;12.60;99.90
6206;DHT22;3136;48.788;9.772;2024-02-21T14:48:06;12.50;99.90
6206;DHT22;3136;48.788;9.772;2024-02-21T14:50:32;12.40;99.90
6206;DHT22;3136;48.788;9.772;2024-02-21T14:52:58;12.40;99.90
6206;DHT22;3136;48.788;9.772;2024-02-21T14:55:23;12.30;99.90
6206;DHT22;3136;48.788;9.772;2024-02-21T14:57:49;12.30;99.90
6206;DHT22;3136;48.788;9.772;2024-02-21T15:00:15;12.20;99.90
6206;DHT22;3136;48.788;9.772;2024-02-21T15:02:41;12.10;99.90
6206;DHT22;3136;48.788;9.772;2024-02-21T15:05:08;12.10;99.90
6206;DHT22;3136;48.788;9.772;2024-02-21T15:07:34;12.00;99.90
6206;DHT22;3136;48.788;9.772;2024-02-21T15:10:00;12.00;99.90
6206;DHT22;3136;48.788;9.772;2024-02-21T15:12:26;12.10;99.90
6206;DHT22;3136;48.788;9.772;2024-02-21T15:14:51;12.10;99.90
6206;DHT22;3136;48.788;9.772;2024-02-21T15:17:17;12.10;99.90
6206;DHT22;3136;48.788;9.772;2024-02-21T15:19:44;12.10;99.90
6206;DHT22;3136;48.788;9.772;2024-02-21T15:22:12;12.10;99.90
6206;DHT22;3136;48.788;9.772;2024-02-21T15:24:39;12.10;99.90
6206;DHT22;3136;48.788;9.772;2024-02-21T15:27:05;12.20;99.90
6206;DHT22;3136;48.788;9.772;2024-02-21T15:29:31;12.20;99.90
6206;DHT22;3136;48.788;9.772;2024-02-21T15:31:58;12.20;99.90
6206;DHT22;3136;48.788;9.772;2024-02-21T15:34:24;12.20;99.90
6206;DHT22;3136;48.788;9.772;2024-02-21T15:36:49;12.10;99.90
6206;DHT22;3136;48.788;9.772;2024-02-21T15:39:15;12.10;99.90
6206;DHT22;3136;48.788;9.772;2024-02-21T15:41:40;12.00;99.90
6206;DHT22;3136;48.788;9.772;2024-02-21T15:44:06;11.90;99.90
6206;DHT22;3136;48.788;9.772;2024-02-21T15:46:32;11.80;99.90
6206;DHT22;3136;48.788;9.772;2024-02-21T15:49:01;11.70;99.90
6206;DHT22;3136;48.788;9.772;2024-02-21T15:51:27;11.70;99.90
6206;DHT22;3136;48.788;9.772;2024-02-21T15:53:52;11.50;99.90
6206;DHT22;3136;48.788;9.772;2024-02-21T15:56:18;11.40;99.90
6206;DHT22;3136;48.788;9.772;2024-02-21T15:58:44;11.30;99.90
6206;DHT22;3136;48.788;9.772;2024-02-21T16:01:09;11.20;99.90
6206;DHT22;3136;48.788;9.772;2024-02-21T16:03:40;11.00;1.00
6206;DHT22;3136;48.788;9.772;2024-02-21T16:06:06;10.80;1.00
6206;DHT22;3136;48.788;9.772;2024-02-21T16:08:31;10.70;1.00
6206;DHT22;3136;48.788;9.772;2024-02-21T16:10:59;10.60;1.00
6206;DHT22;3136;48.788;9.772;2024-02-21T16:13:25;10.50;1.00
6206;DHT22;3136;48.788;9.772;2024-02-21T16:15:51;10.30;1.00
6206;DHT22;3136;48.788;9.772;2024-02-21T16:18:16;10.20;1.00
6206;DHT22;3136;48.788;9.772;2024-02-21T16:20:46;10.00;1.00
6206;DHT22;3136;48.788;9.772;2024-02-21T16:23:13;9.90;1.00